sensor_id;sensor_type;location;lat;lon;timestamp;pressure;altitude;pressure_sealevel;temperature;humidity
23619;BME280;18207;32.078;34.818;2024-01-15T00:00:13;101471.59;;;21.81;46.86
23619;BME280;18207;32.078;34.818;2024-01-15T00:02:43;101466.34;;;21.79;46.87
23619;BME280;18207;32.078;34.818;2024-01-15T00:05:13;101466.34;;;21.79;46.92
23619;BME280;18207;32.078;34.818;2024-01-15T00:07:44;101474.72;;;21.79;46.75
23619;BME280;18207;32.078;34.818;2024-01-15T00:10:14;101471.09;;;21.79;46.97
23619;BME280;18207;32.078;34.818;2024-01-15T00:12:44;101475.53;;;21.80;46.91
23619;BME280;18207;32.078;34.818;2024-01-15T00:15:14;101472.44;;;21.81;46.90
23619;BME280;18207;32.078;34.818;2024-01-15T00:17:44;101478.03;;;21.81;46.97
23619;BME280;18207;32.078;34.818;2024-01-15T00:20:14;101477.34;;;21.84;46.98
23619;BME280;18207;32.078;34.818;2024-01-15T00:22:45;101470.59;;;21.85;46.48
23619;BME280;18207;32.078;34.818;2024-01-15T00:25:15;101475.41;;;21.85;46.71
23619;BME280;18207;32.078;34.818;2024-01-15T00:27:45;101475.41;;;21.85;46.88
23619;BME280;18207;32.078;34.818;2024-01-15T00:30:15;101477.84;;;21.86;47.00
23619;BME280;18207;32.078;34.818;2024-01-15T00:32:45;101479.34;;;21.84;46.32
23619;BME280;18207;32.078;34.818;2024-01-15T00:35:15;101483.28;;;21.83;46.46
23619;BME280;18207;32.078;34.818;2024-01-15T00:37:46;101491.69;;;21.83;47.07
23619;BME280;18207;32.078;34.818;2024-01-15T00:40:16;101490.38;;;21.80;46.75
23619;BME280;18207;32.078;34.818;2024-01-15T00:42:46;101492.31;;;21.80;46.82
23619;BME280;18207;32.078;34.818;2024-01-15T00:45:16;101497.44;;;21.78;47.01
23619;BME280;18207;32.078;34.818;2024-01-15T00:47:46;101494.94;;;21.76;47.02
23619;BME280;18207;32.078;34.818;2024-01-15T00:50:16;101488.84;;;21.74;46.48
23619;BME280;18207;32.078;34.818;2024-01-15T00:52:47;101488.03;;;21.74;46.78
23619;BME280;18207;32.078;34.818;2024-01-15T00:55:17;101490.34;;;21.72;46.55
23619;BME280;18207;32.078;34.818;2024-01-15T00:57:47;101490.66;;;21.70;46.89
23619;BME280;18207;32.078;34.818;2024-01-15T01:00:17;101486.56;;;21.68;46.70
23619;BME280;18207;32.078;34.818;2024-01-15T01:02:47;101489.66;;;21.66;46.87
23619;BME280;18207;32.078;34.818;2024-01-15T01:05:17;101488.34;;;21.64;46.66
23619;BME280;18207;32.078;34.818;2024-01-15T01:07:49;101485.88;;;21.62;46.58
23619;BME280;18207;32.078;34.818;2024-01-15T01:10:18;101490.13;;;21.60;46.81
23619;BME280;18207;32.078;34.818;2024-01-15T01:12:51;101493.25;;;21.58;46.75
23619;BME280;18207;32.078;34.818;2024-01-15T01:15:21;101497.53;;;21.56;46.87
23619;BME280;18207;32.078;34.818;2024-01-15T01:17:52;101487.81;;;21.53;46.76
23619;BME280;18207;32.078;34.818;2024-01-15T01:20:22;101480.56;;;21.52;46.73
23619;BME280;18207;32.078;34.818;2024-01-15T01:22:54;101484.50;;;21.52;47.00
23619;BME280;18207;32.078;34.818;2024-01-15T01:25:24;101479.22;;;21.50;46.60
23619;BME280;18207;32.078;34.818;2024-01-15T01:27:54;101485.13;;;21.49;46.96
23619;BME280;18207;32.078;34.818;2024-01-15T01:30:24;101479.88;;;21.47;46.55
23619;BME280;18207;32.078;34.818;2024-01-15T01:32:54;101476.56;;;21.45;46.98
23619;BME280;18207;32.078;34.818;2024-01-15T01:35:24;101471.31;;;21.44;47.03
23619;BME280;18207;32.078;34.818;2024-01-15T01:37:55;101472.47;;;21.43;46.79
23619;BME280;18207;32.078;34.818;2024-01-15T01:40:25;101488.72;;;21.41;46.65
23619;BME280;18207;32.078;34.818;2024-01-15T01:42:54;101484.28;;;21.40;46.53
23619;BME280;18207;32.078;34.818;2024-01-15T01:45:24;101482.63;;;21.39;47.23
23619;BME280;18207;32.078;34.818;2024-01-15T01:48:08;101486.56;;;21.38;46.97
23619;BME280;18207;32.078;34.818;2024-01-15T01:50:39;101488.38;;;21.34;46.80
23619;BME280;18207;32.078;34.818;2024-01-15T01:53:10;101485.06;;;21.32;46.76
23619;BME280;18207;32.078;34.818;2024-01-15T01:55:40;101478.66;;;21.31;46.82
23619;BME280;18207;32.078;34.818;2024-01-15T01:58:20;101476.69;;;21.32;47.04
23619;BME280;18207;32.078;34.818;2024-01-15T02:00:50;101486.56;;;21.29;47.05
23619;BME280;18207;32.078;34.818;2024-01-15T02:03:23;101491.31;;;21.29;46.79
23619;BME280;18207;32.078;34.818;2024-01-15T02:05:53;101492.44;;;21.28;46.88
23619;BME280;18207;32.078;34.818;2024-01-15T02:08:26;101495.75;;;21.30;46.79
23619;BME280;18207;32.078;34.818;2024-01-15T02:10:56;101496.25;;;21.32;46.95
23619;BME280;18207;32.078;34.818;2024-01-15T02:13:26;101493.97;;;21.34;46.80
23619;BME280;18207;32.078;34.818;2024-01-15T02:15:56;101486.41;;;21.34;46.75
23619;BME280;18207;32.078;34.818;2024-01-15T02:18:26;101497.25;;;21.36;47.22
23619;BME280;18207;32.078;34.818;2024-01-15T02:20:55;101497.25;;;21.36;47.18
23619;BME280;18207;32.078;34.818;2024-01-15T02:23:27;101493.97;;;21.34;47.05
23619;BME280;18207;32.078;34.818;2024-01-15T02:25:57;101494.28;;;21.32;46.75
23619;BME280;18207;32.078;34.818;2024-01-15T02:28:27;101487.03;;;21.31;47.17
23619;BME280;18207;32.078;34.818;2024-01-15T02:30:57;101482.91;;;21.29;47.16
23619;BME280;18207;32.078;34.818;2024-01-15T02:33:26;101492.16;;;21.29;46.70
23619;BME280;18207;32.078;34.818;2024-01-15T02:35:56;101500.03;;;21.27;46.53
23619;BME280;18207;32.078;34.818;2024-01-15T02:38:27;101502.31;;;21.25;46.81
23619;BME280;18207;32.078;34.818;2024-01-15T02:40:58;101497.88;;;21.24;46.60
23619;BME280;18207;32.078;34.818;2024-01-15T02:43:28;101498.69;;;21.25;46.69
23619;BME280;18207;32.078;34.818;2024-01-15T02:45:57;101497.88;;;21.24;46.82
23619;BME280;18207;32.078;34.818;2024-01-15T02:48:27;101507.41;;;21.23;47.10
23619;BME280;18207;32.078;34.818;2024-01-15T02:50:57;101492.59;;;21.23;46.88
23619;BME280;18207;32.078;34.818;2024-01-15T02:53:29;101502.94;;;21.22;46.79
23619;BME280;18207;32.078;34.818;2024-01-15T02:55:58;101500.16;;;21.22;46.80
23619;BME280;18207;32.078;34.818;2024-01-15T02:58:28;101509.69;;;21.21;47.17
23619;BME280;18207;32.078;34.818;2024-01-15T03:00:58;101510.81;;;21.20;47.02
23619;BME280;18207;32.078;34.818;2024-01-15T03:03:28;101511.16;;;21.19;46.83
23619;BME280;18207;32.078;34.818;2024-01-15T03:05:59;101510.66;;;21.17;46.59
23619;BME280;18207;32.078;34.818;2024-01-15T03:08:30;101513.78;;;21.15;47.12
23619;BME280;18207;32.078;34.818;2024-01-15T03:11:00;101515.25;;;21.13;47.13
23619;BME280;18207;32.078;34.818;2024-01-15T03:13:30;101531.19;;;21.12;46.62
23619;BME280;18207;32.078;34.818;2024-01-15T03:16:00;101533.97;;;21.12;46.84
23619;BME280;18207;32.078;34.818;2024-01-15T03:18:29;101543.19;;;21.13;46.55
23619;BME280;18207;32.078;34.818;2024-01-15T03:20:59;101550.75;;;21.12;46.79
23619;BME280;18207;32.078;34.818;2024-01-15T03:23:32;101551.59;;;21.13;47.21
23619;BME280;18207;32.078;34.818;2024-01-15T03:26:02;101561.09;;;21.12;47.01
23619;BME280;18207;32.078;34.818;2024-01-15T03:28:31;101568.66;;;21.11;47.04
23619;BME280;18207;32.078;34.818;2024-01-15T03:31:01;101565.03;;;21.11;46.70
23619;BME280;18207;32.078;34.818;2024-01-15T03:33:31;101571.44;;;21.11;46.60
23619;BME280;18207;32.078;34.818;2024-01-15T03:36:01;101570.97;;;21.09;47.02
23619;BME280;18207;32.078;34.818;2024-01-15T03:38:32;101572.09;;;21.08;46.96
23619;BME280;18207;32.078;34.818;2024-01-15T03:41:02;101583.28;;;21.08;47.02
23619;BME280;18207;32.078;34.818;2024-01-15T03:43:32;101579.97;;;21.06;46.90
23619;BME280;18207;32.078;34.818;2024-01-15T03:46:02;101584.72;;;21.06;46.78
23619;BME280;18207;32.078;34.818;2024-01-15T03:48:32;101582.25;;;21.04;46.58
23619;BME280;18207;32.078;34.818;2024-01-15T03:51:03;101580.59;;;21.03;46.51
23619;BME280;18207;32.078;34.818;2024-01-15T03:53:34;101573.38;;;21.02;47.06
23619;BME280;18207;32.078;34.818;2024-01-15T03:56:05;101577.28;;;21.01;46.54
23619;BME280;18207;32.078;34.818;2024-01-15T03:58:34;101574.03;;;20.99;47.12
23619;BME280;18207;32.078;34.818;2024-01-15T04:01:08;101588.81;;;21.00;46.67
23619;BME280;18207;32.078;34.818;2024-01-15T04:03:38;101586.34;;;20.98;46.76
23619;BME280;18207;32.078;34.818;2024-01-15T04:06:08;101579.41;;;20.96;46.99
23619;BME280;18207;32.078;34.818;2024-01-15T04:08:42;101590.91;;;20.94;46.72
23619;BME280;18207;32.078;34.818;2024-01-15T04:11:12;101598.75;;;20.92;46.89
23619;BME280;18207;32.078;34.818;2024-01-15T04:13:42;101610.28;;;20.91;47.00
23619;BME280;18207;32.078;34.818;2024-01-15T04:16:12;101608.94;;;20.88;46.88
23619;BME280;18207;32.078;34.818;2024-01-15T04:18:42;101606.44;;;20.87;46.74
23619;BME280;18207;32.078;34.818;2024-01-15T04:21:12;101622.72;;;20.85;47.06
23619;BME280;18207;32.078;34.818;2024-01-15T04:23:45;101637.50;;;20.85;47.27
23619;BME280;18207;32.078;34.818;2024-01-15T04:26:15;101641.44;;;20.84;46.94
23619;BME280;18207;32.078;34.818;2024-01-15T04:28:45;101629.94;;;20.86;47.16
23619;BME280;18207;32.078;34.818;2024-01-15T04:31:47;101639.69;;;20.88;47.02
23619;BME280;18207;32.078;34.818;2024-01-15T04:34:24;101641.34;;;20.89;47.17
23619;BME280;18207;32.078;34.818;2024-01-15T04:36:55;101655.31;;;20.89;46.83
23619;BME280;18207;32.078;34.818;2024-01-15T04:39:26;101656.63;;;20.92;46.99
23619;BME280;18207;32.078;34.818;2024-01-15T04:41:56;101657.44;;;20.92;46.82
23619;BME280;18207;32.078;34.818;2024-01-15T04:44:26;101657.78;;;20.91;46.78
23619;BME280;18207;32.078;34.818;2024-01-15T04:46:56;101662.50;;;20.90;46.70
23619;BME280;18207;32.078;34.818;2024-01-15T04:49:26;101673.69;;;20.90;47.12
23619;BME280;18207;32.078;34.818;2024-01-15T04:51:57;101672.88;;;20.90;47.22
23619;BME280;18207;32.078;34.818;2024-01-15T04:54:29;101674.88;;;20.89;47.12
23619;BME280;18207;32.078;34.818;2024-01-15T04:56:59;101677.94;;;20.88;47.03
23619;BME280;18207;32.078;34.818;2024-01-15T04:59:28;101681.06;;;20.86;47.18
23619;BME280;18207;32.078;34.818;2024-01-15T05:01:58;101674.63;;;20.86;47.23
23619;BME280;18207;32.078;34.818;2024-01-15T05:04:28;101687.78;;;20.85;47.28
23619;BME280;18207;32.078;34.818;2024-01-15T05:06:58;101684.19;;;20.85;47.09
23619;BME280;18207;32.078;34.818;2024-01-15T05:09:29;101691.72;;;20.84;47.20
23619;BME280;18207;32.078;34.818;2024-01-15T05:12:04;101694.84;;;20.83;46.88
23619;BME280;18207;32.078;34.818;2024-01-15T05:14:37;101701.56;;;20.82;47.17
23619;BME280;18207;32.078;34.818;2024-01-15T05:17:08;101693.47;;;20.80;47.26
23619;BME280;18207;32.078;34.818;2024-01-15T05:19:41;101696.28;;;20.80;46.96
23619;BME280;18207;32.078;34.818;2024-01-15T05:22:13;101695.47;;;20.80;46.77
23619;BME280;18207;32.078;34.818;2024-01-15T05:24:47;101687.91;;;20.80;47.20
23619;BME280;18207;32.078;34.818;2024-01-15T05:27:19;101688.75;;;20.81;46.73
23619;BME280;18207;32.078;34.818;2024-01-15T05:29:52;101686.47;;;20.83;46.75
23619;BME280;18207;32.078;34.818;2024-01-15T05:32:24;101682.22;;;20.85;46.96
23619;BME280;18207;32.078;34.818;2024-01-15T05:34:55;101683.03;;;20.86;46.81
23619;BME280;18207;32.078;34.818;2024-01-15T05:37:26;101685.53;;;20.87;46.98
23619;BME280;18207;32.078;34.818;2024-01-15T05:39:58;101690.47;;;20.90;47.33
23619;BME280;18207;32.078;34.818;2024-01-15T05:42:28;101697.41;;;20.93;46.81
23619;BME280;18207;32.078;34.818;2024-01-15T05:45:00;101696.28;;;20.94;47.16
23619;BME280;18207;32.078;34.818;2024-01-15T05:47:32;101702.84;;;20.98;47.00
23619;BME280;18207;32.078;34.818;2024-01-15T05:50:03;101706.97;;;21.00;47.02
23619;BME280;18207;32.078;34.818;2024-01-15T05:52:33;101712.56;;;21.00;47.19
23619;BME280;18207;32.078;34.818;2024-01-15T05:55:05;101726.78;;;21.04;47.10
23619;BME280;18207;32.078;34.818;2024-01-15T05:57:35;101750.75;;;21.05;46.64
23619;BME280;18207;32.078;34.818;2024-01-15T06:00:06;101755.72;;;21.08;46.64
23619;BME280;18207;32.078;34.818;2024-01-15T06:02:38;101759.38;;;21.08;47.09
23619;BME280;18207;32.078;34.818;2024-01-15T06:05:08;101765.75;;;21.09;46.82
23619;BME280;18207;32.078;34.818;2024-01-15T06:07:37;101765.44;;;21.10;46.86
23619;BME280;18207;32.078;34.818;2024-01-15T06:10:09;101771.53;;;21.12;47.12
23619;BME280;18207;32.078;34.818;2024-01-15T06:12:39;101786.38;;;21.13;47.09
23619;BME280;18207;32.078;34.818;2024-01-15T06:15:10;101768.13;;;21.15;46.83
23619;BME280;18207;32.078;34.818;2024-01-15T06:17:40;101749.38;;;21.16;46.80
23619;BME280;18207;32.078;34.818;2024-01-15T06:20:12;101745.16;;;21.18;47.01
23619;BME280;18207;32.078;34.818;2024-01-15T06:22:42;101762.72;;;21.19;46.55
23619;BME280;18207;32.078;34.818;2024-01-15T06:25:13;101769.66;;;21.21;46.96
23619;BME280;18207;32.078;34.818;2024-01-15T06:27:43;101775.25;;;21.21;47.00
23619;BME280;18207;32.078;34.818;2024-01-15T06:30:14;101776.91;;;21.22;46.64
23619;BME280;18207;32.078;34.818;2024-01-15T06:32:44;101774.63;;;21.24;46.52
23619;BME280;18207;32.078;34.818;2024-01-15T06:35:14;101784.34;;;21.27;46.75
23619;BME280;18207;32.078;34.818;2024-01-15T06:37:49;101778.94;;;21.30;46.91
23619;BME280;18207;32.078;34.818;2024-01-15T06:40:20;101779.16;;;21.34;47.36
23619;BME280;18207;32.078;34.818;2024-01-15T06:42:50;101785.75;;;21.38;46.72
23619;BME280;18207;32.078;34.818;2024-01-15T06:45:19;101784.00;;;21.42;47.21
23619;BME280;18207;32.078;34.818;2024-01-15T06:47:58;101783.34;;;21.45;46.72
23619;BME280;18207;32.078;34.818;2024-01-15T06:50:37;101788.31;;;21.48;46.79
23619;BME280;18207;32.078;34.818;2024-01-15T06:53:07;101789.16;;;21.48;46.86
23619;BME280;18207;32.078;34.818;2024-01-15T06:55:38;101802.19;;;21.52;47.32
23619;BME280;18207;32.078;34.818;2024-01-15T06:58:17;101808.00;;;21.56;47.09
23619;BME280;18207;32.078;34.818;2024-01-15T07:00:47;101807.56;;;21.62;47.31
23619;BME280;18207;32.078;34.818;2024-01-15T07:03:17;101811.25;;;21.71;47.70
23619;BME280;18207;32.078;34.818;2024-01-15T07:05:47;101823.00;;;21.82;47.17
23619;BME280;18207;32.078;34.818;2024-01-15T07:08:17;101819.16;;;21.91;47.27
23619;BME280;18207;32.078;34.818;2024-01-15T07:10:48;101831.22;;;22.00;47.43
23619;BME280;18207;32.078;34.818;2024-01-15T07:13:18;101836.06;;;22.08;47.40
23619;BME280;18207;32.078;34.818;2024-01-15T07:15:48;101832.81;;;22.15;47.20
23619;BME280;18207;32.078;34.818;2024-01-15T07:18:19;101837.94;;;22.21;47.39
23619;BME280;18207;32.078;34.818;2024-01-15T07:20:50;101840.59;;;22.26;47.32
23619;BME280;18207;32.078;34.818;2024-01-15T07:23:21;101852.84;;;22.30;46.99
23619;BME280;18207;32.078;34.818;2024-01-15T07:25:52;101854.69;;;22.35;46.97
23619;BME280;18207;32.078;34.818;2024-01-15T07:28:22;101854.03;;;22.38;46.87
23619;BME280;18207;32.078;34.818;2024-01-15T07:30:52;101879.75;;;22.40;46.74
23619;BME280;18207;32.078;34.818;2024-01-15T07:33:22;101882.25;;;22.41;47.01
23619;BME280;18207;32.078;34.818;2024-01-15T07:35:52;101893.94;;;22.43;46.68
23619;BME280;18207;32.078;34.818;2024-01-15T07:38:22;101891.66;;;22.45;46.96
23619;BME280;18207;32.078;34.818;2024-01-15T07:40:53;101906.19;;;22.47;46.98
23619;BME280;18207;32.078;34.818;2024-01-15T07:43:23;101894.63;;;22.48;46.73
23619;BME280;18207;32.078;34.818;2024-01-15T07:45:53;101891.53;;;22.50;46.67
23619;BME280;18207;32.078;34.818;2024-01-15T07:48:25;101887.38;;;22.47;46.84
23619;BME280;18207;32.078;34.818;2024-01-15T07:50:55;101885.75;;;22.46;46.51
23619;BME280;18207;32.078;34.818;2024-01-15T07:53:25;101883.25;;;22.45;46.58
23619;BME280;18207;32.078;34.818;2024-01-15T07:56:00;101882.75;;;22.43;46.62
23619;BME280;18207;32.078;34.818;2024-01-15T07:58:30;101878.63;;;22.41;46.82
23619;BME280;18207;32.078;34.818;2024-01-15T08:01:00;101875.63;;;22.37;46.66
23619;BME280;18207;32.078;34.818;2024-01-15T08:03:30;101872.03;;;22.37;46.49
23619;BME280;18207;32.078;34.818;2024-01-15T08:06:00;101867.06;;;22.34;46.39
23619;BME280;18207;32.078;34.818;2024-01-15T08:08:30;101861.75;;;22.32;46.35
23619;BME280;18207;32.078;34.818;2024-01-15T08:11:02;101860.94;;;22.32;46.91
23619;BME280;18207;32.078;34.818;2024-01-15T08:13:33;101858.13;;;22.32;46.61
23619;BME280;18207;32.078;34.818;2024-01-15T08:16:03;101855.63;;;22.30;46.65
23619;BME280;18207;32.078;34.818;2024-01-15T08:18:33;101852.53;;;22.32;46.68
23619;BME280;18207;32.078;34.818;2024-01-15T08:21:04;101855.34;;;22.32;46.44
23619;BME280;18207;32.078;34.818;2024-01-15T08:23:35;101844.94;;;22.32;47.06
23619;BME280;18207;32.078;34.818;2024-01-15T08:26:07;101842.66;;;22.34;46.39
23619;BME280;18207;32.078;34.818;2024-01-15T08:28:37;101839.03;;;22.34;46.53
23619;BME280;18207;32.078;34.818;2024-01-15T08:31:07;101830.63;;;22.34;46.67
23619;BME280;18207;32.078;34.818;2024-01-15T08:33:37;101837.06;;;22.34;46.58
23619;BME280;18207;32.078;34.818;2024-01-15T08:36:08;101831.16;;;22.36;46.40
23619;BME280;18207;32.078;34.818;2024-01-15T08:38:38;101830.00;;;22.37;46.73
23619;BME280;18207;32.078;34.818;2024-01-15T08:41:10;101821.28;;;22.38;46.64
23619;BME280;18207;32.078;34.818;2024-01-15T08:43:40;101826.53;;;22.40;46.61
23619;BME280;18207;32.078;34.818;2024-01-15T08:46:10;101814.19;;;22.41;46.52
23619;BME280;18207;32.078;34.818;2024-01-15T08:48:40;101812.72;;;22.43;46.82
23619;BME280;18207;32.078;34.818;2024-01-15T08:51:10;101809.59;;;22.44;46.67
23619;BME280;18207;32.078;34.818;2024-01-15T08:53:40;101813.72;;;22.47;46.74
23619;BME280;18207;32.078;34.818;2024-01-15T08:56:11;101811.09;;;22.50;47.12
23619;BME280;18207;32.078;34.818;2024-01-15T08:58:41;101802.88;;;22.54;46.70
23619;BME280;18207;32.078;34.818;2024-01-15T09:01:11;101797.78;;;22.56;46.93
23619;BME280;18207;32.078;34.818;2024-01-15T09:03:41;101792.69;;;22.58;46.85
23619;BME280;18207;32.078;34.818;2024-01-15T09:06:12;101785.59;;;22.60;46.55
23619;BME280;18207;32.078;34.818;2024-01-15T09:08:42;101784.13;;;22.63;47.08
23619;BME280;18207;32.078;34.818;2024-01-15T09:11:26;101775.88;;;22.66;46.80
23619;BME280;18207;32.078;34.818;2024-01-15T09:13:56;101776.41;;;22.68;46.45
23619;BME280;18207;32.078;34.818;2024-01-15T09:16:26;101773.75;;;22.72;46.65
23619;BME280;18207;32.078;34.818;2024-01-15T09:18:56;101772.63;;;22.73;46.35
23619;BME280;18207;32.078;34.818;2024-01-15T09:21:26;101772.78;;;22.76;46.36
23619;BME280;18207;32.078;34.818;2024-01-15T09:23:56;101771.34;;;22.79;46.80
23619;BME280;18207;32.078;34.818;2024-01-15T09:26:27;101769.84;;;22.81;46.59
23619;BME280;18207;32.078;34.818;2024-01-15T09:28:58;101768.38;;;22.84;46.45
23619;BME280;18207;32.078;34.818;2024-01-15T09:31:28;101754.03;;;22.85;46.60
23619;BME280;18207;32.078;34.818;2024-01-15T09:33:58;101749.75;;;22.88;46.40
23619;BME280;18207;32.078;34.818;2024-01-15T09:36:28;101746.31;;;22.91;46.40
23619;BME280;18207;32.078;34.818;2024-01-15T09:38:58;101746.78;;;22.93;46.39
23619;BME280;18207;32.078;34.818;2024-01-15T09:41:30;101750.59;;;22.97;46.69
23619;BME280;18207;32.078;34.818;2024-01-15T09:44:00;101747.44;;;22.98;46.20
23619;BME280;18207;32.078;34.818;2024-01-15T09:46:32;101744.00;;;23.01;46.17
23619;BME280;18207;32.078;34.818;2024-01-15T09:49:02;101738.06;;;23.03;46.50
23619;BME280;18207;32.078;34.818;2024-01-15T09:51:33;101735.44;;;23.06;46.47
23619;BME280;18207;32.078;34.818;2024-01-15T09:54:04;101735.63;;;23.10;46.53
23619;BME280;18207;32.078;34.818;2024-01-15T09:56:36;101730.19;;;23.13;46.49
23619;BME280;18207;32.078;34.818;2024-01-15T09:59:06;101729.50;;;23.16;46.67
23619;BME280;18207;32.078;34.818;2024-01-15T10:01:38;101727.72;;;23.20;46.79
23619;BME280;18207;32.078;34.818;2024-01-15T10:04:09;101739.09;;;23.24;46.14
23619;BME280;18207;32.078;34.818;2024-01-15T10:06:45;101731.69;;;23.28;46.39
23619;BME280;18207;32.078;34.818;2024-01-15T10:09:16;101740.59;;;23.30;46.51
23619;BME280;18207;32.078;34.818;2024-01-15T10:11:48;101736.31;;;23.32;46.24
23619;BME280;18207;32.078;34.818;2024-01-15T10:14:32;101735.97;;;23.33;46.29
23619;BME280;18207;32.078;34.818;2024-01-15T10:17:12;101740.06;;;23.36;46.22
23619;BME280;18207;32.078;34.818;2024-01-15T10:19:45;101731.66;;;23.36;46.43
23619;BME280;18207;32.078;34.818;2024-01-15T10:22:17;101738.63;;;23.38;46.44
23619;BME280;18207;32.078;34.818;2024-01-15T10:24:47;101739.09;;;23.40;45.95
23619;BME280;18207;32.078;34.818;2024-01-15T10:27:19;101738.78;;;23.42;46.40
23619;BME280;18207;32.078;34.818;2024-01-15T10:29:50;101729.19;;;23.43;46.29
23619;BME280;18207;32.078;34.818;2024-01-15T10:32:23;101737.28;;;23.44;46.42
23619;BME280;18207;32.078;34.818;2024-01-15T10:34:54;101734.13;;;23.46;46.14
23619;BME280;18207;32.078;34.818;2024-01-15T10:37:25;101728.50;;;23.46;46.27
23619;BME280;18207;32.078;34.818;2024-01-15T10:39:56;101716.97;;;23.47;46.19
23619;BME280;18207;32.078;34.818;2024-01-15T10:42:28;101723.09;;;23.49;46.01
23619;BME280;18207;32.078;34.818;2024-01-15T10:44:57;101715.50;;;23.50;46.11
23619;BME280;18207;32.078;34.818;2024-01-15T10:47:28;101707.56;;;23.52;46.25
23619;BME280;18207;32.078;34.818;2024-01-15T10:49:59;101707.22;;;23.53;45.87
23619;BME280;18207;32.078;34.818;2024-01-15T10:52:29;101715.00;;;23.56;45.92
23619;BME280;18207;32.078;34.818;2024-01-15T10:55:00;101711.03;;;23.57;46.02
23619;BME280;18207;32.078;34.818;2024-01-15T10:57:39;101710.34;;;23.60;45.82
23619;BME280;18207;32.078;34.818;2024-01-15T11:00:10;101710.03;;;23.62;45.80
23619;BME280;18207;32.078;34.818;2024-01-15T11:02:43;101708.88;;;23.63;45.70
23619;BME280;18207;32.078;34.818;2024-01-15T11:05:16;101709.34;;;23.65;45.66
23619;BME280;18207;32.078;34.818;2024-01-15T11:07:50;101705.72;;;23.64;45.53
23619;BME280;18207;32.078;34.818;2024-01-15T11:10:42;101704.22;;;23.67;45.38
23619;BME280;18207;32.078;34.818;2024-01-15T11:13:20;101699.44;;;23.67;45.50
23619;BME280;18207;32.078;34.818;2024-01-15T11:15:59;101698.63;;;23.67;45.38
23619;BME280;18207;32.078;34.818;2024-01-15T11:18:34;101705.06;;;23.67;45.75
23619;BME280;18207;32.078;34.818;2024-01-15T11:21:21;101696.66;;;23.67;45.29
23619;BME280;18207;32.078;34.818;2024-01-15T11:23:55;101696.97;;;23.66;45.29
23619;BME280;18207;32.078;34.818;2024-01-15T11:26:34;101705.38;;;23.66;45.42
23619;BME280;18207;32.078;34.818;2024-01-15T11:29:08;101705.38;;;23.66;45.40
23619;BME280;18207;32.078;34.818;2024-01-15T11:32:08;101704.56;;;23.65;45.55
23619;BME280;18207;32.078;34.818;2024-01-15T11:34:59;101711.34;;;23.64;45.51
23619;BME280;18207;32.078;34.818;2024-01-15T11:37:57;101708.88;;;23.63;45.67
23619;BME280;18207;32.078;34.818;2024-01-15T11:40:42;101711.19;;;23.61;45.32
23619;BME280;18207;32.078;34.818;2024-01-15T11:43:16;101719.59;;;23.61;45.72
23619;BME280;18207;32.078;34.818;2024-01-15T11:45:52;101709.19;;;23.61;45.58
23619;BME280;18207;32.078;34.818;2024-01-15T11:48:29;101702.75;;;23.61;45.37
23619;BME280;18207;32.078;34.818;2024-01-15T11:51:10;101705.56;;;23.61;45.34
23619;BME280;18207;32.078;34.818;2024-01-15T11:53:48;101710.03;;;23.62;45.50
23619;BME280;18207;32.078;34.818;2024-01-15T11:56:22;101707.53;;;23.60;45.50
23619;BME280;18207;32.078;34.818;2024-01-15T11:58:53;101699.13;;;23.60;45.41
23619;BME280;18207;32.078;34.818;2024-01-15T12:01:25;101705.56;;;23.61;45.07
23619;BME280;18207;32.078;34.818;2024-01-15T12:03:55;101715.94;;;23.60;45.25
23619;BME280;18207;32.078;34.818;2024-01-15T12:06:26;101714.00;;;23.61;44.81
23619;BME280;18207;32.078;34.818;2024-01-15T12:09:06;101721.25;;;23.62;44.88
23619;BME280;18207;32.078;34.818;2024-01-15T12:11:39;101719.59;;;23.61;45.11
23619;BME280;18207;32.078;34.818;2024-01-15T12:14:11;101718.75;;;23.60;44.87
23619;BME280;18207;32.078;34.818;2024-01-15T12:16:42;101724.06;;;23.62;44.96
23619;BME280;18207;32.078;34.818;2024-01-15T12:19:13;101724.88;;;23.62;44.80
23619;BME280;18207;32.078;34.818;2024-01-15T12:21:44;101727.69;;;23.62;44.95
23619;BME280;18207;32.078;34.818;2024-01-15T12:24:16;101738.09;;;23.62;45.06
23619;BME280;18207;32.078;34.818;2024-01-15T12:26:46;101724.88;;;23.62;44.69
23619;BME280;18207;32.078;34.818;2024-01-15T12:29:18;101730.47;;;23.62;44.63
23619;BME280;18207;32.078;34.818;2024-01-15T12:31:50;101730.47;;;23.62;44.60
23619;BME280;18207;32.078;34.818;2024-01-15T12:34:21;101732.47;;;23.62;44.76
23619;BME280;18207;32.078;34.818;2024-01-15T12:36:51;101730.47;;;23.62;44.83
23619;BME280;18207;32.078;34.818;2024-01-15T12:39:21;101727.69;;;23.62;44.81
23619;BME280;18207;32.078;34.818;2024-01-15T12:41:52;101727.69;;;23.62;44.95
23619;BME280;18207;32.078;34.818;2024-01-15T12:44:22;101724.06;;;23.62;44.78
23619;BME280;18207;32.078;34.818;2024-01-15T12:46:54;101725.38;;;23.64;44.41
23619;BME280;18207;32.078;34.818;2024-01-15T12:49:24;101726.19;;;23.65;44.90
23619;BME280;18207;32.078;34.818;2024-01-15T12:51:56;101726.19;;;23.65;44.52
23619;BME280;18207;32.078;34.818;2024-01-15T12:54:27;101730.63;;;23.66;44.74
23619;BME280;18207;32.078;34.818;2024-01-15T12:56:56;101721.06;;;23.67;44.82
23619;BME280;18207;32.078;34.818;2024-01-15T12:59:26;101724.72;;;23.67;44.83
23619;BME280;18207;32.078;34.818;2024-01-15T13:01:58;101732.78;;;23.69;45.13